Palm Springs, Florida
Current Conditions -  °F | °C
As of 10:07 AM on Monday 24 Nov 2014 (Local Time) from KPBI Reporting Station
Broken Clouds Broken Clouds  
Wind Chill: 85°   Ceiling: 2500
Heat Index: 93°   Visibility: 10mi
Dew Point: 75°   Wind: 12mph
Humidity: 72%   Direction: 180°S
Pressure: 30.01"   Gusts: NA
Location:  26.6205°N, 80.0918°W
Report Text: KPBI 241507Z 18010KT 10SM SCT017 BKN025TCU BKN035 29/24 A3001 RMK AO2 TCU NE T02940239
Loading
Personal Weather Stations






























Interactive Weather Map New forecast layout! Learn more

10-Day Weather Forecast

Advertisements
Track Severe Weather on mobile